x

Fred Howard Park, Fl (fhpf1) Weather Station

7:54am - Fri 21st Jul 2017 All times are EDT. -4 hours from GMT.

  • Wind
    5mph, 6mph gusts
  • Air Temp 80°f
  • Sea Pressure 1017.9mb
  • Fred Howard Park, Fl
  • Fred Howard Park, Fl

More Historic Weather Station data

Upgrade to MSW Pro to gain access to the past 30 days of data for over 8000 Wavebouys and Weather Stations around the globe.

Join Pro

Comparision Forecast

View Surf forecast
   
Fri 07/21 7:54am 5 6 mph 1017.9mb 80f
7:48am 6 7 mph 1017.7mb 80f
6:54am 8 10 mph 1017.4mb 78f
6:48am 8 9 mph 1017.4mb 78f
5:54am 7 9 mph 1016.9mb 79f
5:48am 6 8 mph 1016.9mb 78f
4:54am 8 10 mph 1016.8mb 78f
4:48am 8 10 mph 1016.7mb 78f
3:54am 8 10 mph 1016.9mb 79f
3:48am 8 10 mph 1016.9mb 79f
2:54am 9 10 mph 1017mb 79f
2:48am 9 10 mph 1017.1mb 79f
1:54am 2 6 mph 1016.7mb 82f
1:48am 3 5 mph 1016.8mb 82f
12:54am 15 17 mph 1016.3mb 82f
12:48am 14 15 mph 1016.5mb 81f
Thu 07/20 11:54pm 8 10 mph 1018.6mb 80f
11:48pm 7 9 mph 1018.8mb 80f
10:54pm  -  2 mph 1018.5mb 80f
10:48pm 3 6 mph 1018.3mb 80f
9:54pm 6 8 mph 1017.3mb 82f
9:48pm 6 9 mph 1017.9mb 82f
8:54pm 3 6 mph 1018.1mb 87f
8:48pm 3 6 mph 1018mb 87f
7:54pm 2 6 mph 1017.6mb 87f
7:48pm 5 6 mph 1017.5mb 87f
6:54pm 6 8 mph 1017.2mb 89f
6:48pm 6 8 mph 1017mb 89f
5:54pm 7 9 mph 1017.2mb 89f
5:48pm 7 9 mph 1017.1mb 89f
4:54pm 6 8 mph 1017.3mb 88f
4:48pm 7 9 mph 1017.5mb 89f
3:54pm 8 11 mph 1018.1mb 89f
3:48pm 7 9 mph 1018.3mb 89f
2:54pm 7 9 mph 1019mb 87f
2:48pm 7 9 mph 1019.1mb 87f
1:54pm 7 8 mph 1019.4mb 86f
1:48pm 7 9 mph 1019.5mb 86f
12:54pm 9 11 mph 1019.9mb 85f
12:48pm 8 11 mph 1019.8mb 85f
11:54am 8 9 mph 1020.2mb 85f
11:48am 8 9 mph 1020.2mb 85f
10:54am 5 6 mph 1020.1mb 85f
10:48am 3 6 mph 1020.3mb 85f
9:54am  -  2 mph 1020mb 84f
9:48am  -  2 mph 1020.1mb 84f
8:54am 3 5 mph 1020.1mb 81f
8:48am 3 5 mph 1019.9mb 81f
7:54am 3 5 mph 1019.4mb 79f
7:48am 3 6 mph 1019.3mb 79f
6:54am 3 5 mph 1019.2mb 78f
6:48am 3 5 mph 1019.2mb 78f
5:54am 6 7 mph 1018.6mb 78f
5:48am 6 7 mph 1018.5mb 78f
4:54am 7 8 mph 1018.5mb 78f
4:48am 6 8 mph 1018.5mb 78f
3:54am 7 9 mph 1018.3mb 78f
3:48am 7 9 mph 1018.4mb 78f
2:54am 8 10 mph 1018.9mb 79f
2:48am 8 10 mph 1019mb 78f
1:54am 7 9 mph 1019.4mb 79f
1:48am 8 10 mph 1019.5mb 79f
12:54am 7 8 mph 1019.5mb 80f
12:48am 8 10 mph 1019.4mb 81f
Wed 07/19 11:54pm 9 13 mph 1019.1mb 81f
11:48pm 8 10 mph 1019.1mb 81f
10:54pm 7 8 mph 1019.1mb 82f
10:48pm 8 10 mph 1019.3mb 83f
9:54pm 5 7 mph 1019.1mb 84f
9:48pm 8 10 mph 1019.3mb 84f
8:54pm 7 9 mph 1019.1mb 86f
8:48pm 6 9 mph 1019mb 86f
7:54pm 6 9 mph 1018.7mb 87f
7:48pm 6 9 mph 1018.7mb 87f
6:54pm 8 11 mph 1018.5mb 87f
6:48pm 9 10 mph 1018.4mb 87f
5:54pm 8 10 mph 1018.1mb 88f
5:48pm 8 11 mph 1018.1mb 88f
4:54pm 9 11 mph 1018.9mb 87f
4:48pm 9 11 mph 1018.9mb 87f
3:54pm 10 13 mph 1019.2mb 87f
3:48pm 11 14 mph 1019.3mb 86f
2:54pm 7 9 mph 1019.7mb 87f
2:48pm 7 8 mph 1019.9mb 87f
1:54pm 7 9 mph 1020.5mb 86f
1:48pm 7 9 mph 1020.5mb 86f
12:54pm 8 13 mph 1020.7mb 85f
12:48pm 7 9 mph 1020.8mb 84f
11:54am  -  0 mph 1020.9mb 84f
11:48am  -  2 mph 1021mb 83f
10:54am 2 5 mph 1020.8mb 82f
10:48am  -  1 mph 1020.8mb 82f
9:54am 2 3 mph 1020.7mb 82f
9:48am 3 5 mph 1020.7mb 82f
8:54am 1 2 mph 1020.5mb 82f
8:48am 1 2 mph 1020.6mb 82f
7:54am 6 7 mph 1019.8mb 79f
7:48am 5 6 mph 1019.7mb 79f
6:54am 5 6 mph 1019.5mb 78f
6:48am 3 6 mph 1019.4mb 78f
5:54am 7 9 mph 1019mb 79f
5:48am 8 9 mph 1018.9mb 78f
4:54am 6 8 mph 1018.5mb 79f
4:48am 6 7 mph 1018.5mb 79f
3:54am 5 8 mph 1018.7mb 79f
3:48am 5 7 mph 1018.7mb 79f
2:54am 6 7 mph 1019.1mb 79f
2:48am 6 8 mph 1019.1mb 79f
1:54am 7 8 mph 1019.5mb 80f
1:48am 6 7 mph 1019.4mb 80f
12:54am 3 5 mph 1019.7mb 81f
12:48am 3 5 mph 1019.8mb 81f
Tue 07/18 11:54pm 5 7 mph 1020mb 81f
11:48pm 6 7 mph 1019.9mb 81f
10:54pm 5 6 mph 1019.6mb 82f
10:48pm 5 6 mph 1019.6mb 82f
9:54pm 5 7 mph 1019.2mb 84f
9:48pm 6 7 mph 1019.2mb 84f
8:54pm 2 3 mph 1019.2mb 85f
8:48pm 3 3 mph 1019.2mb 85f
7:54pm 5 6 mph 1019mb 86f
7:48pm 6 7 mph 1019mb 86f
6:54pm 9 10 mph 1018.8mb 86f
6:48pm 8 10 mph 1018.7mb 86f
5:54pm 8 10 mph 1018.4mb 86f
4:54pm 6 7 mph 1018.5mb 86f
4:48pm 6 8 mph 1018.6mb 86f
3:54pm  -  2 mph 1019mb 83f
3:48pm  -  2 mph 1019.1mb 83f
2:54pm 2 5 mph 1019.3mb 82f
2:48pm 1 2 mph 1019.3mb 82f
1:54pm 5 7 mph 1019.8mb 81f
1:48pm 6 7 mph 1019.7mb 81f
12:54pm 5 6 mph 1020.3mb 81f
12:48pm 5 7 mph 1020.3mb 82f